createdAt,value
2023-05-11T00:00:19.583Z,100510.81
2023-05-11T00:02:49.200Z,100517.97
2023-05-11T00:05:19.029Z,100515.56
2023-05-11T00:07:48.242Z,100521.72
2023-05-11T00:10:17.385Z,100530.16
2023-05-11T00:12:46.810Z,100536.88
2023-05-11T00:15:16.745Z,100532.22
2023-05-11T00:17:46.678Z,100535.06
2023-05-11T00:20:17.031Z,100535.78
2023-05-11T00:22:51.039Z,100529.91
2023-05-11T00:25:20.045Z,100531.06
2023-05-11T00:27:49.474Z,100531.25
2023-05-11T00:30:20.276Z,100525.75
2023-05-11T00:32:49.824Z,100535.69
2023-05-11T00:35:19.438Z,100541.38
2023-05-11T00:37:49.131Z,100527.44
2023-05-11T00:40:18.642Z,100545.69
2023-05-11T00:42:47.359Z,100548.16
2023-05-11T00:45:16.734Z,100552.06
2023-05-11T00:47:46.711Z,100555.13
2023-05-11T00:50:16.561Z,100564.16
2023-05-11T00:52:46.746Z,100559.41
2023-05-11T00:55:18.996Z,100566.44
2023-05-11T00:57:48.460Z,100567.00
2023-05-11T01:00:17.959Z,100575.97
2023-05-11T01:02:48.319Z,100580.59
2023-05-11T01:05:17.220Z,100566.97
2023-05-11T01:08:10.210Z,100572.84
2023-05-11T01:10:57.591Z,100583.97
2023-05-11T01:13:43.526Z,100581.41
2023-05-11T01:16:21.181Z,100592.91
2023-05-11T01:19:07.873Z,100602.84
2023-05-11T01:21:38.366Z,100603.16
2023-05-11T01:24:23.397Z,100601.28
2023-05-11T01:27:22.060Z,100604.59
2023-05-11T01:30:06.286Z,100597.31
2023-05-11T01:32:40.220Z,100593.69
2023-05-11T01:35:19.003Z,100591.66
2023-05-11T01:37:52.596Z,100592.88
2023-05-11T01:40:25.621Z,100586.94
2023-05-11T01:43:08.295Z,100583.88
2023-05-11T01:45:45.212Z,100589.63
2023-05-11T01:48:24.463Z,100583.69
2023-05-11T01:50:54.900Z,100590.47
2023-05-11T01:53:24.547Z,100594.66
2023-05-11T01:55:57.060Z,100586.19
2023-05-11T01:58:31.630Z,100587.06
2023-05-11T02:01:04.234Z,100596.28
2023-05-11T02:03:37.522Z,100597.78
2023-05-11T02:06:08.917Z,100592.44
2023-05-11T02:08:39.674Z,100582.88
2023-05-11T02:11:12.025Z,100592.16
2023-05-11T02:13:45.097Z,100596.22
2023-05-11T02:16:19.979Z,100606.81
2023-05-11T02:18:51.445Z,100605.78
2023-05-11T02:21:21.497Z,100616.00
2023-05-11T02:23:51.962Z,100612.53
2023-05-11T02:26:21.086Z,100612.41
2023-05-11T02:28:50.794Z,100610.03
2023-05-11T02:31:26.466Z,100615.16
2023-05-11T02:34:05.555Z,100613.16
2023-05-11T02:36:39.130Z,100607.22
2023-05-11T02:39:13.266Z,100611.44
2023-05-11T02:41:46.412Z,100613.34
2023-05-11T02:44:18.387Z,100605.03
2023-05-11T02:46:50.130Z,100608.53
2023-05-11T02:49:23.105Z,100599.56
2023-05-11T02:51:53.511Z,100602.84
2023-05-11T02:54:25.283Z,100606.69
2023-05-11T02:56:59.823Z,100607.56
2023-05-11T02:59:31.318Z,100608.44
2023-05-11T03:02:01.835Z,100610.50
2023-05-11T03:04:32.930Z,100617.00
2023-05-11T03:07:02.190Z,100629.91
2023-05-11T03:09:31.556Z,100625.22
2023-05-11T03:12:03.574Z,100624.34
2023-05-11T03:14:36.963Z,100631.81
2023-05-11T03:17:08.961Z,100637.09
2023-05-11T03:19:43.048Z,100633.81
2023-05-11T03:22:16.044Z,100628.56
2023-05-11T03:24:46.896Z,100620.19
2023-05-11T03:27:18.849Z,100615.44
2023-05-11T03:29:49.459Z,100621.63
2023-05-11T03:32:19.294Z,100622.16
2023-05-11T03:34:50.702Z,100619.00
2023-05-11T03:37:21.902Z,100618.47
2023-05-11T03:39:56.617Z,100609.97
2023-05-11T03:42:27.900Z,100610.81
2023-05-11T03:45:00.289Z,100607.00
2023-05-11T03:47:31.013Z,100602.56
2023-05-11T03:50:00.804Z,100601.94
2023-05-11T03:52:31.231Z,100597.78
2023-05-11T03:55:00.462Z,100588.19
2023-05-11T03:57:30.159Z,100600.25
2023-05-11T03:59:59.423Z,100604.59
2023-05-11T04:02:28.628Z,100604.13
2023-05-11T04:04:59.019Z,100605.00
2023-05-11T04:07:28.419Z,100598.50
2023-05-11T04:09:57.170Z,100594.50
2023-05-11T04:12:27.042Z,100602.91
2023-05-11T04:14:56.226Z,100601.22
2023-05-11T04:17:25.222Z,100603.03
2023-05-11T04:19:54.475Z,100602.25
2023-05-11T04:22:24.456Z,100600.56
2023-05-11T04:24:53.026Z,100615.97
2023-05-11T04:27:21.390Z,100621.56
2023-05-11T04:29:50.993Z,100618.06
2023-05-11T04:32:19.876Z,100619.75
2023-05-11T04:34:49.125Z,100616.19
2023-05-11T04:37:21.520Z,100611.22
2023-05-11T04:39:51.557Z,100616.00
2023-05-11T04:42:21.071Z,100615.81
2023-05-11T04:44:56.341Z,100614.56
2023-05-11T04:47:25.471Z,100621.81
2023-05-11T04:49:55.121Z,100619.97
2023-05-11T04:52:24.777Z,100622.66
2023-05-11T04:54:53.648Z,100625.78
2023-05-11T04:57:23.262Z,100626.19
2023-05-11T04:59:52.351Z,100625.66
2023-05-11T05:02:21.183Z,100614.56
2023-05-11T05:04:50.783Z,100608.38
2023-05-11T05:07:20.128Z,100598.41
2023-05-11T05:09:49.425Z,100597.75
2023-05-11T05:12:19.704Z,100595.72
2023-05-11T05:14:48.758Z,100596.97
2023-05-11T05:17:18.812Z,100593.66
2023-05-11T05:19:47.829Z,100599.84
2023-05-11T05:22:17.843Z,100597.56
2023-05-11T05:24:48.374Z,100596.53
2023-05-11T05:27:18.185Z,100597.34
2023-05-11T05:29:47.767Z,100599.63
2023-05-11T05:32:17.944Z,100601.72
2023-05-11T05:34:50.970Z,100599.41
2023-05-11T05:37:20.001Z,100595.28
2023-05-11T05:39:49.473Z,100581.56
2023-05-11T05:42:18.593Z,100574.53
2023-05-11T05:44:49.950Z,100572.44
2023-05-11T05:47:20.007Z,100570.13
2023-05-11T05:49:49.108Z,100567.22
2023-05-11T05:52:17.601Z,100563.91
2023-05-11T05:54:48.507Z,100567.84
2023-05-11T05:57:17.969Z,100568.44
2023-05-11T05:59:48.044Z,100565.94
2023-05-11T06:02:19.829Z,100562.19
2023-05-11T06:04:49.142Z,100565.28
2023-05-11T06:07:17.994Z,100565.06
2023-05-11T06:09:47.497Z,100562.59
2023-05-11T06:12:18.008Z,100565.28
2023-05-11T06:14:49.676Z,100568.41
2023-05-11T06:17:19.304Z,100571.09
2023-05-11T06:19:49.038Z,100574.84
2023-05-11T06:22:21.391Z,100576.47
2023-05-11T06:24:51.109Z,100573.41
2023-05-11T06:27:21.634Z,100582.53
2023-05-11T06:29:53.282Z,100590.59
2023-05-11T06:32:22.902Z,100584.97
2023-05-11T06:34:52.022Z,100583.75
2023-05-11T06:37:21.915Z,100578.16
2023-05-11T06:39:53.116Z,100573.84
2023-05-11T06:42:26.048Z,100576.28
2023-05-11T06:45:06.750Z,100569.88
2023-05-11T06:47:37.434Z,100575.84
2023-05-11T06:50:07.163Z,100577.09
2023-05-11T06:52:39.509Z,100581.44
2023-05-11T06:55:08.821Z,100584.38
2023-05-11T06:57:37.360Z,100586.88
2023-05-11T07:00:08.785Z,100578.41
2023-05-11T07:02:37.694Z,100571.75
2023-05-11T07:05:07.419Z,100577.94
2023-05-11T07:07:36.530Z,100579.59
2023-05-11T07:10:07.056Z,100576.91
2023-05-11T07:12:36.836Z,100571.09
2023-05-11T07:15:05.611Z,100564.66
2023-05-11T07:17:35.063Z,100564.03
2023-05-11T07:20:04.712Z,100568.34
2023-05-11T07:22:34.512Z,100564.00
2023-05-11T07:25:04.215Z,100573.28
2023-05-11T07:27:35.626Z,100589.19
2023-05-11T07:30:07.374Z,100581.81
2023-05-11T07:32:37.243Z,100592.81
2023-05-11T07:35:06.362Z,100578.94
2023-05-11T07:37:35.617Z,100577.09
2023-05-11T07:40:05.206Z,100587.97
2023-05-11T07:42:33.718Z,100577.66
2023-05-11T07:45:03.569Z,100586.34
2023-05-11T07:47:34.465Z,100584.69
2023-05-11T07:50:06.187Z,100587.38
2023-05-11T07:52:35.692Z,100582.19
2023-05-11T07:55:05.211Z,100588.84
2023-05-11T07:57:33.600Z,100588.41
2023-05-11T08:00:02.619Z,100585.28
2023-05-11T08:02:40.935Z,100590.84
2023-05-11T08:05:10.017Z,100587.91
2023-05-11T08:07:41.514Z,100584.81
2023-05-11T08:10:11.665Z,100577.81
2023-05-11T08:12:40.695Z,100588.97
2023-05-11T08:15:10.726Z,100587.47
2023-05-11T08:17:39.873Z,100586.75
2023-05-11T08:20:09.664Z,100588.28
2023-05-11T08:22:39.531Z,100593.81
2023-05-11T08:25:09.561Z,100588.00
2023-05-11T08:27:39.439Z,100597.28
2023-05-11T08:30:11.914Z,100591.69
2023-05-11T08:32:54.136Z,100599.78
2023-05-11T08:35:27.418Z,100596.09
2023-05-11T08:37:56.307Z,100601.00
2023-05-11T08:40:28.559Z,100600.63
2023-05-11T08:42:57.879Z,100598.50
2023-05-11T08:45:28.644Z,100600.97
2023-05-11T08:47:57.718Z,100594.56
2023-05-11T08:50:27.380Z,100604.28
2023-05-11T08:52:56.850Z,100608.75
2023-05-11T08:55:28.406Z,100616.81
2023-05-11T08:57:59.781Z,100613.00
2023-05-11T09:00:29.853Z,100611.31
2023-05-11T09:03:00.311Z,100618.75
2023-05-11T09:05:29.469Z,100615.03
2023-05-11T09:08:04.868Z,100616.41
2023-05-11T09:10:34.112Z,100613.63
2023-05-11T09:13:03.499Z,100613.81
2023-05-11T09:15:37.071Z,100616.44
2023-05-11T09:18:07.153Z,100611.81
2023-05-11T09:20:36.306Z,100613.31
2023-05-11T09:23:06.038Z,100616.13
2023-05-11T09:25:35.864Z,100619.75
2023-05-11T09:28:04.617Z,100617.59
2023-05-11T09:30:35.370Z,100617.44
2023-05-11T09:33:04.905Z,100619.50
2023-05-11T09:35:37.176Z,100630.38
2023-05-11T09:38:09.153Z,100625.28
2023-05-11T09:40:51.610Z,100624.16
2023-05-11T09:43:29.000Z,100624.59
2023-05-11T09:46:05.565Z,100625.94
2023-05-11T09:48:36.428Z,100628.97
2023-05-11T09:51:09.477Z,100633.72
2023-05-11T09:53:43.943Z,100621.47
2023-05-11T09:56:16.108Z,100629.03
2023-05-11T09:58:57.849Z,100635.81
2023-05-11T10:01:33.000Z,100632.69
2023-05-11T10:04:17.774Z,100631.22
2023-05-11T10:06:55.770Z,100635.66
2023-05-11T10:09:29.084Z,100629.53
2023-05-11T10:11:57.669Z,100635.19
2023-05-11T10:14:30.149Z,100630.94
2023-05-11T10:17:02.361Z,100635.97
2023-05-11T10:19:32.715Z,100634.13
2023-05-11T10:22:02.782Z,100640.53
2023-05-11T10:24:33.453Z,100642.81
2023-05-11T10:27:03.305Z,100648.56
2023-05-11T10:29:33.959Z,100646.44
2023-05-11T10:32:04.871Z,100653.84
2023-05-11T10:34:35.186Z,100651.34
2023-05-11T10:37:05.078Z,100661.06
2023-05-11T10:39:38.164Z,100658.94
2023-05-11T10:42:21.248Z,100664.59
2023-05-11T10:45:16.075Z,100666.19
2023-05-11T10:48:14.362Z,100662.19
2023-05-11T10:50:43.763Z,100664.84
2023-05-11T10:53:42.149Z,100669.69
2023-05-11T10:56:46.570Z,100669.41
2023-05-11T10:59:53.077Z,100674.31
2023-05-11T11:02:23.157Z,100672.03
2023-05-11T11:04:53.697Z,100676.44
2023-05-11T11:07:23.060Z,100690.66
2023-05-11T11:10:01.000Z,100689.34
2023-05-11T11:12:30.294Z,100679.03
2023-05-11T11:15:08.466Z,100683.53
2023-05-11T11:17:37.640Z,100680.81
2023-05-11T11:20:09.242Z,100688.81
2023-05-11T11:22:42.189Z,100686.22
2023-05-11T11:25:13.915Z,100679.81
2023-05-11T11:27:47.376Z,100681.31
2023-05-11T11:30:24.068Z,100686.03
2023-05-11T11:32:55.918Z,100687.59
2023-05-11T11:35:42.838Z,100683.69
2023-05-11T11:38:20.598Z,100685.69
2023-05-11T11:40:53.282Z,100684.88
2023-05-11T11:43:31.637Z,100688.72
2023-05-11T11:46:02.221Z,100694.13
2023-05-11T11:48:36.601Z,100691.84
2023-05-11T11:51:09.337Z,100687.97
2023-05-11T11:53:39.506Z,100689.22
2023-05-11T11:56:17.715Z,100687.97
2023-05-11T11:58:47.056Z,100694.84
2023-05-11T12:01:18.173Z,100698.81
2023-05-11T12:03:55.305Z,100689.00
2023-05-11T12:06:33.339Z,100692.09
2023-05-11T12:09:01.770Z,100692.06
2023-05-11T12:11:31.420Z,100694.13
2023-05-11T12:14:01.764Z,100701.16
2023-05-11T12:16:33.220Z,100696.47
2023-05-11T12:19:02.401Z,100695.00
2023-05-11T12:21:33.669Z,100695.78
2023-05-11T12:24:04.902Z,100697.50
2023-05-11T12:26:35.627Z,100703.66
2023-05-11T12:29:13.865Z,100697.84
2023-05-11T12:31:47.608Z,100692.75
2023-05-11T12:34:20.128Z,100698.44
2023-05-11T12:36:51.054Z,100702.84
2023-05-11T12:39:25.192Z,100693.81
2023-05-11T12:41:57.375Z,100694.72
2023-05-11T12:44:27.788Z,100703.94
2023-05-11T12:46:57.324Z,100700.50
2023-05-11T12:49:29.531Z,100705.66
2023-05-11T12:52:12.977Z,100706.28
2023-05-11T12:54:54.475Z,100704.00
2023-05-11T12:57:29.419Z,100699.25
2023-05-11T13:00:18.113Z,100699.59
2023-05-11T13:02:59.656Z,100697.00
2023-05-11T13:05:41.682Z,100691.69
2023-05-11T13:08:18.656Z,100694.38
2023-05-11T13:11:24.207Z,100697.28
2023-05-11T13:13:54.819Z,100695.66
2023-05-11T13:16:36.763Z,100686.34
2023-05-11T13:19:07.084Z,100687.53
2023-05-11T13:21:35.578Z,100691.00
2023-05-11T13:24:05.347Z,100682.16
2023-05-11T13:26:34.853Z,100682.75
2023-05-11T13:29:10.887Z,100686.56
2023-05-11T13:31:53.361Z,100689.06
2023-05-11T13:34:23.380Z,100691.22
2023-05-11T13:36:51.918Z,100691.94
2023-05-11T13:39:20.881Z,100691.41
2023-05-11T13:41:49.618Z,100684.00
2023-05-11T13:44:18.218Z,100694.81
2023-05-11T13:46:47.723Z,100690.06
2023-05-11T13:49:17.684Z,100690.56
2023-05-11T13:51:46.795Z,100692.31
2023-05-11T13:54:17.571Z,100691.47
2023-05-11T13:56:48.030Z,100693.78
2023-05-11T13:59:17.505Z,100677.44
2023-05-11T14:01:47.369Z,100689.56
2023-05-11T14:04:17.745Z,100687.13
2023-05-11T14:06:47.729Z,100686.94
2023-05-11T14:09:18.825Z,100688.06
2023-05-11T14:11:47.825Z,100687.34
2023-05-11T14:14:17.847Z,100689.38
2023-05-11T14:16:47.317Z,100678.03
2023-05-11T14:19:18.245Z,100685.41
2023-05-11T14:21:49.192Z,100685.13
2023-05-11T14:24:18.030Z,100680.88
2023-05-11T14:26:47.992Z,100671.56
2023-05-11T14:29:18.059Z,100679.00
2023-05-11T14:31:48.709Z,100668.44
2023-05-11T14:34:18.428Z,100667.56
2023-05-11T14:36:48.462Z,100667.34
2023-05-11T14:39:17.900Z,100665.13
2023-05-11T14:41:47.346Z,100658.59
2023-05-11T14:44:17.928Z,100655.50
2023-05-11T14:46:47.635Z,100656.03
2023-05-11T14:49:17.270Z,100653.44
2023-05-11T14:51:47.153Z,100655.59
2023-05-11T14:54:17.490Z,100656.94
2023-05-11T14:56:52.651Z,100653.59
2023-05-11T14:59:22.890Z,100654.22
2023-05-11T15:01:52.713Z,100654.50
2023-05-11T15:04:21.799Z,100646.59
2023-05-11T15:06:51.692Z,100642.19
2023-05-11T15:09:21.760Z,100643.28
2023-05-11T15:11:50.512Z,100637.56
2023-05-11T15:14:19.636Z,100642.16
2023-05-11T15:16:48.558Z,100638.88
2023-05-11T15:19:18.283Z,100634.50
2023-05-11T15:21:48.018Z,100631.97
2023-05-11T15:24:18.067Z,100624.59
2023-05-11T15:26:48.177Z,100623.19
2023-05-11T15:29:18.572Z,100625.00
2023-05-11T15:31:49.727Z,100619.00
2023-05-11T15:34:19.659Z,100617.72
2023-05-11T15:36:50.219Z,100616.84
2023-05-11T15:39:20.849Z,100613.97
2023-05-11T15:41:50.153Z,100614.50
2023-05-11T15:44:19.237Z,100613.50
2023-05-11T15:46:49.294Z,100612.16
2023-05-11T15:49:18.049Z,100601.19
2023-05-11T15:51:48.356Z,100606.28
2023-05-11T15:54:18.043Z,100604.47
2023-05-11T15:56:47.882Z,100600.41
2023-05-11T15:59:17.920Z,100591.97
2023-05-11T16:01:48.097Z,100589.78
2023-05-11T16:04:18.204Z,100585.94
2023-05-11T16:06:50.261Z,100587.66
2023-05-11T16:09:19.864Z,100584.53
2023-05-11T16:11:49.801Z,100592.41
2023-05-11T16:14:19.966Z,100587.72
2023-05-11T16:16:49.809Z,100584.66
2023-05-11T16:19:19.501Z,100585.00
2023-05-11T16:21:49.264Z,100585.53
2023-05-11T16:24:18.021Z,100581.78
2023-05-11T16:26:51.037Z,100582.22
2023-05-11T16:29:20.736Z,100583.44
2023-05-11T16:31:50.472Z,100576.31
2023-05-11T16:34:20.663Z,100580.78
2023-05-11T16:36:50.133Z,100568.97
2023-05-11T16:39:19.790Z,100569.84
2023-05-11T16:41:48.784Z,100563.59
2023-05-11T16:44:18.326Z,100567.47
2023-05-11T16:46:49.694Z,100563.06
2023-05-11T16:49:20.853Z,100556.44
2023-05-11T16:51:51.261Z,100559.19
2023-05-11T16:54:20.665Z,100556.44
2023-05-11T16:56:50.028Z,100547.97
2023-05-11T16:59:20.819Z,100546.19
2023-05-11T17:01:50.111Z,100544.84
2023-05-11T17:04:19.468Z,100552.50
2023-05-11T17:06:49.265Z,100542.09
2023-05-11T17:09:18.356Z,100540.97
2023-05-11T17:11:48.192Z,100545.34
2023-05-11T17:14:17.437Z,100544.97
2023-05-11T17:16:46.677Z,100541.38
2023-05-11T17:19:21.192Z,100541.69
2023-05-11T17:21:56.379Z,100542.50
2023-05-11T17:24:25.179Z,100548.63
2023-05-11T17:26:53.869Z,100552.38
2023-05-11T17:29:23.591Z,100549.34
2023-05-11T17:31:52.809Z,100552.81
2023-05-11T17:34:23.737Z,100548.13
2023-05-11T17:36:55.649Z,100541.69
2023-05-11T17:39:24.237Z,100545.28
2023-05-11T17:41:53.862Z,100540.88
2023-05-11T17:44:23.803Z,100550.88
2023-05-11T17:46:52.791Z,100547.91
2023-05-11T17:49:21.923Z,100539.66
2023-05-11T17:51:51.543Z,100542.19
2023-05-11T17:54:20.174Z,100538.44
2023-05-11T17:56:49.932Z,100544.94
2023-05-11T17:59:21.029Z,100537.94
2023-05-11T18:01:50.378Z,100537.03
2023-05-11T18:04:20.465Z,100538.75
2023-05-11T18:06:50.300Z,100534.06
2023-05-11T18:09:21.198Z,100536.19
2023-05-11T18:11:49.932Z,100534.97
2023-05-11T18:14:18.715Z,100531.19
2023-05-11T18:16:49.923Z,100524.78
2023-05-11T18:19:18.832Z,100521.19
2023-05-11T18:21:49.969Z,100515.63
2023-05-11T18:24:20.810Z,100517.22
2023-05-11T18:26:50.089Z,100508.31
2023-05-11T18:29:21.073Z,100508.25
2023-05-11T18:31:50.442Z,100517.47
2023-05-11T18:34:21.548Z,100507.16
2023-05-11T18:36:51.862Z,100510.06
2023-05-11T18:39:22.358Z,100509.41
2023-05-11T18:41:51.574Z,100504.31
2023-05-11T18:44:20.550Z,100503.94
2023-05-11T18:46:49.545Z,100500.22
2023-05-11T18:49:18.764Z,100506.78
2023-05-11T18:51:48.308Z,100497.38
2023-05-11T18:54:17.793Z,100493.31
2023-05-11T18:56:47.842Z,100493.19
2023-05-11T18:59:17.728Z,100490.41
2023-05-11T19:01:48.544Z,100485.72
2023-05-11T19:04:20.592Z,100481.78
2023-05-11T19:06:49.797Z,100474.22
2023-05-11T19:09:18.560Z,100467.81
2023-05-11T19:11:49.185Z,100472.59
2023-05-11T19:14:18.015Z,100469.44
2023-05-11T19:16:48.788Z,100465.56
2023-05-11T19:19:18.031Z,100461.00
2023-05-11T19:21:49.518Z,100466.16
2023-05-11T19:24:18.120Z,100454.06
2023-05-11T19:27:02.506Z,100457.72
2023-05-11T19:29:34.964Z,100447.44
2023-05-11T19:32:04.302Z,100439.56
2023-05-11T19:34:34.437Z,100440.88
2023-05-11T19:37:04.359Z,100441.19
2023-05-11T19:39:33.780Z,100438.06
2023-05-11T19:42:03.768Z,100430.94
2023-05-11T19:44:33.552Z,100430.91
2023-05-11T19:47:03.773Z,100433.97
2023-05-11T19:49:32.729Z,100432.06
2023-05-11T19:52:02.302Z,100431.88
2023-05-11T19:54:31.089Z,100421.44
2023-05-11T19:57:00.984Z,100416.38
2023-05-11T19:59:33.236Z,100413.28
2023-05-11T20:02:04.757Z,100411.16
2023-05-11T20:04:34.448Z,100407.22
2023-05-11T20:07:03.862Z,100401.75
2023-05-11T20:09:32.979Z,100400.03
2023-05-11T20:12:02.498Z,100398.41
2023-05-11T20:14:32.980Z,100398.56
2023-05-11T20:17:02.045Z,100396.09
2023-05-11T20:19:31.587Z,100390.28
2023-05-11T20:21:59.951Z,100392.50
2023-05-11T20:24:29.030Z,100400.78
2023-05-11T20:26:58.252Z,100402.09
2023-05-11T20:29:28.457Z,100395.81
2023-05-11T20:31:58.009Z,100405.47
2023-05-11T20:34:28.156Z,100392.75
2023-05-11T20:36:57.757Z,100395.22
2023-05-11T20:39:26.708Z,100397.31
2023-05-11T20:41:59.888Z,100392.84
2023-05-11T20:44:29.577Z,100388.53
2023-05-11T20:46:58.445Z,100383.94
2023-05-11T20:49:38.279Z,100394.56
2023-05-11T20:52:09.620Z,100391.13
2023-05-11T20:54:39.353Z,100384.28
2023-05-11T20:57:09.229Z,100386.19
2023-05-11T21:02:09.531Z,100372.69
2023-05-11T21:04:39.856Z,100377.25
2023-05-11T21:07:09.386Z,100374.19
2023-05-11T21:09:37.724Z,100372.28
2023-05-11T21:12:06.571Z,100375.22
2023-05-11T21:14:35.551Z,100361.06
2023-05-11T21:17:04.595Z,100360.97
2023-05-11T21:19:33.901Z,100360.69
2023-05-11T21:22:03.896Z,100369.63
2023-05-11T21:24:33.394Z,100371.56
2023-05-11T21:27:10.553Z,100365.25
2023-05-11T21:29:59.443Z,100368.72
2023-05-11T21:32:30.349Z,100362.41
2023-05-11T21:35:02.134Z,100360.75
2023-05-11T21:38:16.852Z,100367.72
2023-05-11T21:41:03.784Z,100360.03
2023-05-11T21:43:54.424Z,100368.72
2023-05-11T21:46:42.570Z,100364.84
2023-05-11T21:49:17.957Z,100357.91
2023-05-11T21:51:48.000Z,100366.78
2023-05-11T21:54:17.498Z,100374.09
2023-05-11T21:56:48.552Z,100368.31
2023-05-11T21:59:18.326Z,100374.50
2023-05-11T22:01:50.187Z,100368.81
2023-05-11T22:04:21.087Z,100370.84
2023-05-11T22:06:50.132Z,100363.31
2023-05-11T22:09:18.790Z,100366.47
2023-05-11T22:11:48.214Z,100359.66
2023-05-11T22:14:21.500Z,100356.59
2023-05-11T22:16:50.921Z,100360.88
2023-05-11T22:19:22.372Z,100366.78
2023-05-11T22:21:51.841Z,100364.09
2023-05-11T22:24:22.280Z,100354.66
2023-05-11T22:26:53.333Z,100361.19
2023-05-11T22:29:22.576Z,100364.31
2023-05-11T22:31:52.913Z,100368.47
2023-05-11T22:34:22.129Z,100364.69
2023-05-11T22:36:51.777Z,100374.19
2023-05-11T22:39:21.041Z,100365.38
2023-05-11T22:41:50.086Z,100371.72
2023-05-11T22:44:19.801Z,100369.16
2023-05-11T22:46:49.723Z,100367.75
2023-05-11T22:49:19.498Z,100365.81
2023-05-11T22:51:49.141Z,100368.84
2023-05-11T22:54:18.332Z,100362.81
2023-05-11T22:56:47.882Z,100369.91
2023-05-11T22:59:17.988Z,100368.94
2023-05-11T23:01:47.874Z,100363.91
2023-05-11T23:04:17.764Z,100365.22
2023-05-11T23:06:47.710Z,100371.47
2023-05-11T23:09:17.701Z,100360.28
2023-05-11T23:11:49.214Z,100363.97
2023-05-11T23:14:17.863Z,100367.28
2023-05-11T23:16:47.351Z,100362.34
2023-05-11T23:19:16.864Z,100366.69
2023-05-11T23:21:48.057Z,100366.50
2023-05-11T23:24:17.501Z,100368.59
2023-05-11T23:26:52.068Z,100369.03
2023-05-11T23:29:21.266Z,100371.34
2023-05-11T23:31:51.824Z,100372.03
2023-05-11T23:34:20.918Z,100374.28
2023-05-11T23:36:50.297Z,100371.53
2023-05-11T23:39:18.483Z,100374.13
2023-05-11T23:41:47.562Z,100373.69
2023-05-11T23:44:18.018Z,100368.41
2023-05-11T23:46:47.691Z,100374.97
2023-05-11T23:49:17.491Z,100373.16
2023-05-11T23:51:47.165Z,100377.88
2023-05-11T23:54:17.111Z,100377.81
2023-05-11T23:56:47.573Z,100375.97
2023-05-11T23:59:16.899Z,100380.53
